createdAt,value
2022-12-11T00:01:01.127Z,15.2
2022-12-11T00:02:03.402Z,15.2
2022-12-11T00:03:08.287Z,15.2
2022-12-11T00:04:11.756Z,15.2
2022-12-11T00:05:14.233Z,15.2
2022-12-11T00:06:16.721Z,15.2
2022-12-11T00:07:19.198Z,15.1
2022-12-11T00:08:21.478Z,15.2
2022-12-11T00:09:24.052Z,15.2
2022-12-11T00:10:26.613Z,15.2
2022-12-11T00:11:29.102Z,15.2
2022-12-11T00:12:30.744Z,15.2
2022-12-11T00:13:32.946Z,15.3
2022-12-11T00:14:35.168Z,15.2
2022-12-11T00:15:37.878Z,15.2
2022-12-11T00:16:40.448Z,15.2
2022-12-11T00:17:43.135Z,15.3
2022-12-11T00:18:45.374Z,15.3
2022-12-11T00:19:47.845Z,15.3
2022-12-11T00:20:50.328Z,15.2
2022-12-11T00:21:52.526Z,15.3
2022-12-11T00:22:55.037Z,15.3
2022-12-11T00:23:57.580Z,15.3
2022-12-11T00:25:00.106Z,15.3
2022-12-11T00:26:02.657Z,15.3
2022-12-11T00:27:04.640Z,15.3
2022-12-11T00:28:06.842Z,15.2
2022-12-11T00:29:08.480Z,15.3
2022-12-11T00:30:10.955Z,15.3
2022-12-11T00:31:13.163Z,15.3
2022-12-11T00:32:15.759Z,15.3
2022-12-11T00:33:18.393Z,15.2
2022-12-11T00:34:20.863Z,15.2
2022-12-11T00:35:22.786Z,15.3
2022-12-11T00:36:24.986Z,15.2
2022-12-11T00:37:27.275Z,15.4
2022-12-11T00:38:29.665Z,15.3
2022-12-11T00:39:32.151Z,15.4
2022-12-11T00:40:34.678Z,15.3
2022-12-11T00:41:37.251Z,15.3
2022-12-11T00:42:39.185Z,15.2
2022-12-11T00:43:41.394Z,15.4
2022-12-11T00:44:43.869Z,15.3
2022-12-11T00:45:46.325Z,15.4
2022-12-11T00:46:48.984Z,15.3
2022-12-11T00:47:51.457Z,15.4
2022-12-11T00:48:53.652Z,15.3
2022-12-11T00:49:55.622Z,15.3
2022-12-11T00:50:57.830Z,15.4
2022-12-11T00:52:00.309Z,15.2
2022-12-11T00:53:02.792Z,15.3
2022-12-11T00:54:05.005Z,15.5
2022-12-11T00:55:07.731Z,15.3
2022-12-11T00:56:11.863Z,15.3
2022-12-11T00:57:14.439Z,15.4
2022-12-11T00:58:16.651Z,15.4
2022-12-11T00:59:19.136Z,15.4
2022-12-11T01:00:21.331Z,15.4
2022-12-11T01:01:23.974Z,15.4
2022-12-11T01:02:26.593Z,15.6
2022-12-11T01:03:29.361Z,15.5
2022-12-11T01:04:31.844Z,15.4
2022-12-11T01:05:34.329Z,15.5
2022-12-11T01:06:36.533Z,15.4
2022-12-11T01:07:38.718Z,15.5
2022-12-11T01:08:41.193Z,15.5
2022-12-11T01:09:43.444Z,15.5
2022-12-11T01:10:46.021Z,15.5
2022-12-11T01:11:48.537Z,15.4
2022-12-11T01:12:51.077Z,15.5
2022-12-11T01:13:53.300Z,15.5
2022-12-11T01:14:55.512Z,15.3
2022-12-11T01:15:58.006Z,15.5
2022-12-11T01:17:00.627Z,15.5
2022-12-11T01:18:03.322Z,15.3
2022-12-11T01:19:05.801Z,15.4
2022-12-11T01:20:07.998Z,15.3
2022-12-11T01:21:10.475Z,15.4
2022-12-11T01:22:12.952Z,15.3
2022-12-11T01:23:15.152Z,15.4
2022-12-11T01:24:17.639Z,15.4
2022-12-11T01:25:20.112Z,15.6
2022-12-11T01:26:22.334Z,15.3
2022-12-11T01:27:24.872Z,15.3
2022-12-11T01:28:27.446Z,15.5
2022-12-11T01:29:29.941Z,15.3
2022-12-11T01:30:32.488Z,15.5
2022-12-11T01:31:35.048Z,15.6
2022-12-11T01:32:37.240Z,15.7
2022-12-11T01:33:39.724Z,15.3
2022-12-11T01:34:42.213Z,15.6
2022-12-11T01:35:44.705Z,15.4
2022-12-11T01:36:46.909Z,15.6
2022-12-11T01:37:49.372Z,15.5
2022-12-11T01:38:51.288Z,15.4
2022-12-11T01:39:53.768Z,15.4
2022-12-11T01:40:55.443Z,15.6
2022-12-11T01:41:57.367Z,15.4
2022-12-11T01:42:59.365Z,15.5
2022-12-11T01:44:01.628Z,15.6
2022-12-11T01:45:04.102Z,15.4
2022-12-11T01:46:06.152Z,15.6
2022-12-11T01:47:08.794Z,15.5
2022-12-11T01:48:10.991Z,15.5
2022-12-11T01:49:13.220Z,15.4
2022-12-11T01:50:15.690Z,15.5
2022-12-11T01:51:18.168Z,15.4
2022-12-11T01:52:20.653Z,15.5
2022-12-11T01:53:23.126Z,15.6
2022-12-11T01:54:25.608Z,15.5
2022-12-11T01:55:27.807Z,15.5
2022-12-11T01:56:30.286Z,15.6
2022-12-11T01:57:32.202Z,15.5
2022-12-11T01:58:34.726Z,15.5
2022-12-11T01:59:37.270Z,15.6
2022-12-11T02:00:39.760Z,15.6
2022-12-11T02:01:41.739Z,15.5
2022-12-11T02:02:44.405Z,15.6
2022-12-11T02:03:46.496Z,15.4
2022-12-11T02:04:48.697Z,15.5
2022-12-11T02:05:50.893Z,15.6
2022-12-11T02:06:53.397Z,15.5
2022-12-11T02:07:55.628Z,15.6
2022-12-11T02:08:58.332Z,15.4
2022-12-11T02:10:00.525Z,15.6
2022-12-11T02:11:03.020Z,15.5
2022-12-11T02:12:05.217Z,15.6
2022-12-11T02:13:07.705Z,15.5
2022-12-11T02:14:10.218Z,15.7
2022-12-11T02:15:13.515Z,15.6
2022-12-11T02:16:16.200Z,15.7
2022-12-11T02:17:18.053Z,15.5
2022-12-11T02:18:20.533Z,15.5
2022-12-11T02:19:23.017Z,15.4
2022-12-11T02:20:25.493Z,15.6
2022-12-11T02:21:27.977Z,15.7
2022-12-11T02:22:30.463Z,15.6
2022-12-11T02:23:32.705Z,15.5
2022-12-11T02:24:34.923Z,15.5
2022-12-11T02:25:37.411Z,15.5
2022-12-11T02:26:39.878Z,15.5
2022-12-11T02:27:42.098Z,15.6
2022-12-11T02:28:44.569Z,15.4
2022-12-11T02:29:47.118Z,15.5
2022-12-11T02:30:49.673Z,15.6
2022-12-11T02:31:52.293Z,15.6
2022-12-11T02:32:55.013Z,15.6
2022-12-11T02:33:57.498Z,15.5
2022-12-11T02:34:59.689Z,15.6
2022-12-11T02:36:01.622Z,15.6
2022-12-11T02:37:04.129Z,15.6
2022-12-11T02:38:06.339Z,15.5
2022-12-11T02:39:08.542Z,15.5
2022-12-11T02:40:11.014Z,15.6
2022-12-11T02:41:13.509Z,15.6
2022-12-11T02:42:15.701Z,15.6
2022-12-11T02:43:17.877Z,15.6
2022-12-11T02:44:20.345Z,15.8
2022-12-11T02:45:22.878Z,15.6
2022-12-11T02:46:25.422Z,15.6
2022-12-11T02:47:27.912Z,15.6
2022-12-11T02:48:29.824Z,15.7
2022-12-11T02:49:32.315Z,15.6
2022-12-11T02:50:34.793Z,15.4
2022-12-11T02:51:37.003Z,15.6
2022-12-11T02:52:39.197Z,15.6
2022-12-11T02:53:41.399Z,15.5
2022-12-11T02:54:43.867Z,15.4
2022-12-11T02:55:45.806Z,15.5
2022-12-11T02:56:48.299Z,15.6
2022-12-11T02:57:50.257Z,15.5
2022-12-11T02:59:57.446Z,15.5
2022-12-11T03:00:59.800Z,15.5
2022-12-11T03:02:02.833Z,15.7
2022-12-11T03:03:05.277Z,15.5
2022-12-11T03:04:07.770Z,15.6
2022-12-11T03:05:10.834Z,15.6
2022-12-11T03:06:14.262Z,15.6
2022-12-11T03:07:16.731Z,15.5
2022-12-11T03:08:19.526Z,15.7
2022-12-11T03:09:21.952Z,15.5
2022-12-11T03:10:24.439Z,15.6
2022-12-11T03:11:26.935Z,15.6
2022-12-11T03:12:29.133Z,15.5
2022-12-11T03:13:31.592Z,15.4
2022-12-11T03:14:33.811Z,15.3
2022-12-11T03:15:36.286Z,15.5
2022-12-11T03:16:39.044Z,15.5
2022-12-11T03:17:41.795Z,15.5
2022-12-11T03:18:44.002Z,15.3
2022-12-11T03:19:46.477Z,15.6
2022-12-11T03:20:48.957Z,15.4
2022-12-11T03:21:51.151Z,15.4
2022-12-11T03:22:53.633Z,15.5
2022-12-11T03:23:55.847Z,15.4
2022-12-11T03:24:58.337Z,15.4
2022-12-11T03:26:00.530Z,15.4
2022-12-11T03:28:07.988Z,15.5
2022-12-11T03:29:10.478Z,15.4
2022-12-11T03:30:12.133Z,15.4
2022-12-11T03:31:14.499Z,15.4
2022-12-11T03:32:17.230Z,15.5
2022-12-11T03:33:19.800Z,15.4
2022-12-11T03:34:22.283Z,15.5
2022-12-11T03:35:24.765Z,15.5
2022-12-11T03:36:27.247Z,15.5
2022-12-11T03:37:29.449Z,15.5
2022-12-11T03:38:31.943Z,15.5
2022-12-11T03:39:34.411Z,15.4
2022-12-11T03:40:36.907Z,15.4
2022-12-11T03:41:39.366Z,15.5
2022-12-11T03:42:41.865Z,15.3
2022-12-11T03:43:44.062Z,15.5
2022-12-11T03:44:46.544Z,15.5
2022-12-11T03:45:49.145Z,15.3
2022-12-11T03:46:51.866Z,15.6
2022-12-11T03:47:54.380Z,15.4
2022-12-11T03:48:56.917Z,15.4
2022-12-11T03:49:59.416Z,15.5
2022-12-11T03:51:01.902Z,15.5
2022-12-11T03:52:04.115Z,15.4
2022-12-11T03:53:06.346Z,15.3
2022-12-11T03:54:08.816Z,15.4
2022-12-11T03:55:11.603Z,15.4
2022-12-11T03:56:15.031Z,15.3
2022-12-11T03:57:17.517Z,15.4
2022-12-11T03:58:20.040Z,15.3
2022-12-11T03:59:22.236Z,15.5
2022-12-11T04:00:24.428Z,15.4
2022-12-11T04:01:27.008Z,15.5
2022-12-11T04:02:29.787Z,15.4
2022-12-11T04:03:32.311Z,15.3
2022-12-11T04:04:34.914Z,15.4
2022-12-11T04:05:37.597Z,15.5
2022-12-11T04:06:40.070Z,15.5
2022-12-11T04:07:42.571Z,15.4
2022-12-11T04:08:44.738Z,15.3
2022-12-11T04:09:47.226Z,15.4
2022-12-11T04:10:49.403Z,15.4
2022-12-11T04:11:51.596Z,15.2
2022-12-11T04:12:53.791Z,15.3
2022-12-11T04:13:55.713Z,15.6
2022-12-11T04:14:57.914Z,15.4
2022-12-11T04:16:00.458Z,15.5
2022-12-11T04:17:02.901Z,15.3
2022-12-11T04:18:05.386Z,15.4
2022-12-11T04:19:07.904Z,15.5
2022-12-11T04:20:10.172Z,15.4
2022-12-11T04:21:12.366Z,15.3
2022-12-11T04:22:14.591Z,15.3
2022-12-11T04:23:16.800Z,15.5
2022-12-11T04:24:19.275Z,15.5
2022-12-11T04:25:21.755Z,15.3
2022-12-11T04:26:24.220Z,15.2
2022-12-11T04:27:26.730Z,15.2
2022-12-11T04:28:29.265Z,15.5
2022-12-11T04:29:31.474Z,15.5
2022-12-11T04:30:35.046Z,15.4
2022-12-11T04:31:37.524Z,15.3
2022-12-11T04:32:40.000Z,15.5
2022-12-11T04:33:42.485Z,15.3
2022-12-11T04:34:44.468Z,15.3
2022-12-11T04:35:47.036Z,15.2
2022-12-11T04:36:49.226Z,15.6
2022-12-11T04:37:51.436Z,15.3
2022-12-11T04:38:53.912Z,15.3
2022-12-11T04:39:56.393Z,15.3
2022-12-11T04:40:58.868Z,15.3
2022-12-11T04:42:01.355Z,15.3
2022-12-11T04:43:03.827Z,15.3
2022-12-11T04:44:05.771Z,15.3
2022-12-11T04:45:08.887Z,15.4
2022-12-11T04:46:12.985Z,15.3
2022-12-11T04:47:15.769Z,15.4
2022-12-11T04:48:17.682Z,15.4
2022-12-11T04:49:20.161Z,15.3
2022-12-11T04:50:22.419Z,15.3
2022-12-11T04:51:24.967Z,15.3
2022-12-11T04:52:27.451Z,15.5
2022-12-11T04:53:29.654Z,15.3
2022-12-11T04:54:32.134Z,15.3
2022-12-11T04:55:34.612Z,15.3
2022-12-11T04:56:37.091Z,15.4
2022-12-11T04:57:38.742Z,15.4
2022-12-11T04:58:41.228Z,15.3
2022-12-11T04:59:43.700Z,15.3
2022-12-11T05:00:46.179Z,15.3
2022-12-11T05:01:48.464Z,15.4
2022-12-11T05:02:51.123Z,15.4
2022-12-11T05:03:53.928Z,15.3
2022-12-11T05:04:55.845Z,15.4
2022-12-11T05:05:58.367Z,15.3
2022-12-11T05:07:00.981Z,15.3
2022-12-11T05:08:03.556Z,15.3
2022-12-11T05:09:05.979Z,15.3
2022-12-11T05:10:08.454Z,15.4
2022-12-11T05:11:10.965Z,15.4
2022-12-11T05:12:13.299Z,15.4
2022-12-11T05:13:15.819Z,15.4
2022-12-11T05:14:18.287Z,15.3
2022-12-11T05:15:20.757Z,15.3
2022-12-11T05:16:23.090Z,15.3
2022-12-11T05:17:25.811Z,15.3
2022-12-11T05:18:28.015Z,15.2
2022-12-11T05:19:30.214Z,15.3
2022-12-11T05:20:32.700Z,15.3
2022-12-11T05:21:35.915Z,15.4
2022-12-11T05:22:38.538Z,15.3
2022-12-11T05:23:40.461Z,15.4
2022-12-11T05:24:42.948Z,15.2
2022-12-11T05:25:45.116Z,15.4
2022-12-11T05:26:47.322Z,15.3
2022-12-11T05:27:49.789Z,15.3
2022-12-11T05:28:52.280Z,15.2
2022-12-11T05:30:59.966Z,15.4
2022-12-11T05:32:02.525Z,15.3
2022-12-11T05:33:04.729Z,15.3
2022-12-11T05:34:07.204Z,15.3
2022-12-11T05:35:10.508Z,15.2
2022-12-11T05:36:13.712Z,15.2
2022-12-11T05:37:16.402Z,15.2
2022-12-11T05:38:18.996Z,15.2
2022-12-11T05:39:21.474Z,15.3
2022-12-11T05:40:23.945Z,15.2
2022-12-11T05:41:26.433Z,15.3
2022-12-11T05:42:29.695Z,15.2
2022-12-11T05:43:31.913Z,15.2
2022-12-11T05:44:34.106Z,15.4
2022-12-11T05:45:36.316Z,15.3
2022-12-11T05:46:38.961Z,15.3
2022-12-11T05:47:41.576Z,15.3
2022-12-11T05:48:43.770Z,15.2
2022-12-11T05:49:46.269Z,15.3
2022-12-11T05:50:48.739Z,15.3
2022-12-11T05:51:50.933Z,15.2
2022-12-11T05:52:53.469Z,15.3
2022-12-11T05:53:56.203Z,15.3
2022-12-11T05:54:58.696Z,15.3
2022-12-11T05:56:01.181Z,15.2
2022-12-11T05:57:03.380Z,15.3
2022-12-11T05:58:05.287Z,15.2
2022-12-11T05:59:07.757Z,15.3
2022-12-11T06:00:09.971Z,15.3
2022-12-11T06:01:12.449Z,15.3
2022-12-11T06:02:15.345Z,15.3
2022-12-11T06:03:18.583Z,15.3
2022-12-11T06:04:20.937Z,15.3
2022-12-11T06:05:23.405Z,15.3
2022-12-11T06:06:25.616Z,15.2
2022-12-11T06:07:28.081Z,15.3
2022-12-11T06:08:30.609Z,15.3
2022-12-11T06:09:33.140Z,15.3
2022-12-11T06:10:35.629Z,15.3
2022-12-11T06:11:38.098Z,15.3
2022-12-11T06:12:40.582Z,15.3
2022-12-11T06:13:43.056Z,15.3
2022-12-11T06:14:45.239Z,15.4
2022-12-11T06:15:47.715Z,15.3
2022-12-11T06:16:50.068Z,15.3
2022-12-11T06:17:52.521Z,15.2
2022-12-11T06:19:59.414Z,15.3
2022-12-11T06:21:01.901Z,15.3
2022-12-11T06:22:04.383Z,15.3
2022-12-11T06:23:06.581Z,15.3
2022-12-11T06:24:08.635Z,15.3
2022-12-11T06:25:12.064Z,15.2
2022-12-11T06:26:15.502Z,15.3
2022-12-11T06:27:17.976Z,15.3
2022-12-11T06:28:20.164Z,15.3
2022-12-11T06:29:22.637Z,15.2
2022-12-11T06:31:30.250Z,15.3
2022-12-11T06:32:32.859Z,15.4
2022-12-11T06:33:35.069Z,15.3
2022-12-11T06:34:37.309Z,15.3
2022-12-11T06:36:44.775Z,15.3
2022-12-11T06:37:47.271Z,15.3
2022-12-11T06:38:49.199Z,15.2
2022-12-11T06:39:51.811Z,15.2
2022-12-11T06:40:54.349Z,15.2
2022-12-11T06:41:56.819Z,15.3
2022-12-11T06:42:59.028Z,15.2
2022-12-11T06:44:01.506Z,15.3
2022-12-11T06:45:03.710Z,15.3
2022-12-11T06:46:06.333Z,15.2
2022-12-11T06:47:09.201Z,15.2
2022-12-11T06:48:11.668Z,15.3
2022-12-11T06:49:13.878Z,15.3
2022-12-11T06:50:16.338Z,15.3
2022-12-11T06:51:18.561Z,15.2
2022-12-11T06:52:20.493Z,15.3
2022-12-11T06:53:22.485Z,15.3
2022-12-11T06:54:24.705Z,15.2
2022-12-11T06:55:27.230Z,15.3
2022-12-11T06:56:29.769Z,15.3
2022-12-11T06:57:32.244Z,15.3
2022-12-11T06:58:34.718Z,15.3
2022-12-11T06:59:36.923Z,15.3
2022-12-11T07:00:39.331Z,15.2
2022-12-11T07:01:41.639Z,15.3
2022-12-11T07:02:43.808Z,15.3
2022-12-11T07:03:46.288Z,15.3
2022-12-11T07:05:53.472Z,15.3
2022-12-11T07:06:55.672Z,15.3
2022-12-11T07:07:58.268Z,15.3
2022-12-11T07:09:00.698Z,15.3
2022-12-11T07:11:07.933Z,15.3
2022-12-11T07:12:10.492Z,15.3
2022-12-11T07:13:12.712Z,15.2
2022-12-11T07:14:14.915Z,15.3
2022-12-11T07:15:17.457Z,15.3
2022-12-11T07:16:20.149Z,15.2
2022-12-11T07:17:22.548Z,15.3
2022-12-11T07:18:25.035Z,15.2
2022-12-11T07:19:27.443Z,15.2
2022-12-11T07:20:29.638Z,15.2
2022-12-11T07:21:32.125Z,15.2
2022-12-11T07:22:34.595Z,15.3
2022-12-11T07:23:37.084Z,15.2
2022-12-11T07:24:39.007Z,15.2
2022-12-11T07:25:41.219Z,15.3
2022-12-11T07:26:43.746Z,15.3
2022-12-11T07:27:46.021Z,15.3
2022-12-11T07:28:47.971Z,15.2
2022-12-11T07:29:50.478Z,15.3
2022-12-11T07:30:52.950Z,15.2
2022-12-11T07:31:55.347Z,15.2
2022-12-11T07:32:57.735Z,15.2
2022-12-11T07:34:00.430Z,15.3
2022-12-11T07:35:02.641Z,15.3
2022-12-11T07:36:05.143Z,15.3
2022-12-11T07:37:07.045Z,15.3
2022-12-11T07:38:09.239Z,15.3
2022-12-11T07:39:11.446Z,15.2
2022-12-11T07:40:13.409Z,15.2
2022-12-11T07:41:15.879Z,15.3
2022-12-11T07:42:18.429Z,15.2
2022-12-11T07:43:20.953Z,15.3
2022-12-11T07:44:23.200Z,15.4
2022-12-11T07:45:25.404Z,15.4
2022-12-11T07:46:27.886Z,15.2
2022-12-11T07:47:30.359Z,15.3
2022-12-11T07:48:32.565Z,15.2
2022-12-11T07:49:34.769Z,15.2
2022-12-11T07:51:41.970Z,15.2
2022-12-11T07:52:44.165Z,15.2
2022-12-11T07:53:46.370Z,15.3
2022-12-11T07:54:48.856Z,15.2
2022-12-11T07:55:51.066Z,15.2
2022-12-11T07:56:54.296Z,15.2
2022-12-11T07:57:56.839Z,15.2
2022-12-11T07:58:59.608Z,15.2
2022-12-11T08:00:01.271Z,15.3
2022-12-11T08:01:03.909Z,15.2
2022-12-11T08:02:06.756Z,15.3
2022-12-11T08:03:09.188Z,15.3
2022-12-11T08:04:11.691Z,15.2
2022-12-11T08:05:14.546Z,15.2
2022-12-11T08:06:16.742Z,15.3
2022-12-11T08:07:18.942Z,15.3
2022-12-11T08:08:21.037Z,15.2
2022-12-11T08:09:23.493Z,15.3
2022-12-11T08:10:25.945Z,15.2
2022-12-11T08:11:28.568Z,15.4
2022-12-11T08:12:30.771Z,15.3
2022-12-11T08:13:33.308Z,15.2
2022-12-11T08:14:35.881Z,15.2
2022-12-11T08:15:38.076Z,15.3
2022-12-11T08:16:40.705Z,15.2
2022-12-11T08:17:43.069Z,15.3
2022-12-11T08:18:45.567Z,15.3
2022-12-11T08:19:47.508Z,15.2
2022-12-11T08:20:49.700Z,15.2
2022-12-11T08:21:51.657Z,15.2
2022-12-11T08:23:58.869Z,15.2
2022-12-11T08:25:00.777Z,15.2
2022-12-11T08:26:02.764Z,15.3
2022-12-11T08:27:05.281Z,15.3
2022-12-11T08:28:07.474Z,15.3
2022-12-11T08:29:09.693Z,15.2
2022-12-11T08:30:12.232Z,15.2
2022-12-11T08:31:14.584Z,15.3
2022-12-11T08:32:17.343Z,15.3
2022-12-11T08:33:19.821Z,15.2
2022-12-11T08:34:22.033Z,15.3
2022-12-11T08:35:24.510Z,15.2
2022-12-11T08:36:27.029Z,15.2
2022-12-11T08:37:29.233Z,15.2
2022-12-11T08:38:31.467Z,15.3
2022-12-11T08:39:33.392Z,15.2
2022-12-11T08:40:35.612Z,15.2
2022-12-11T08:41:37.812Z,15.2
2022-12-11T08:42:40.311Z,15.2
2022-12-11T08:43:42.522Z,15.2
2022-12-11T08:44:44.846Z,15.2
2022-12-11T08:45:47.661Z,15.2
2022-12-11T08:46:50.359Z,15.2
2022-12-11T08:47:52.846Z,15.2
2022-12-11T08:48:55.103Z,15.2
2022-12-11T08:49:57.605Z,15.3
2022-12-11T08:51:00.094Z,15.2
2022-12-11T08:52:02.571Z,15.2
2022-12-11T08:53:05.071Z,15.2
2022-12-11T08:54:07.572Z,15.2
2022-12-11T08:55:10.423Z,15.3
2022-12-11T08:56:14.402Z,15.2
2022-12-11T08:57:16.624Z,15.2
2022-12-11T08:58:18.832Z,15.3
2022-12-11T08:59:21.337Z,15.2
2022-12-11T09:00:23.867Z,15.2
2022-12-11T09:01:26.740Z,15.2
2022-12-11T09:02:29.722Z,15.2
2022-12-11T09:03:32.489Z,15.3
2022-12-11T09:04:34.694Z,15.2
2022-12-11T09:05:37.179Z,15.2
2022-12-11T09:06:39.375Z,15.2
2022-12-11T09:07:41.559Z,15.3
2022-12-11T09:09:48.747Z,15.2
2022-12-11T09:10:50.963Z,15.2
2022-12-11T09:11:53.470Z,15.2
2022-12-11T09:12:55.994Z,15.2
2022-12-11T09:15:03.466Z,15.3
2022-12-11T09:16:05.877Z,15.2
2022-12-11T09:17:08.751Z,15.3
2022-12-11T09:18:10.734Z,15.2
2022-12-11T09:19:13.273Z,15.2
2022-12-11T09:20:15.501Z,15.2
2022-12-11T09:21:17.779Z,15.2
2022-12-11T09:22:20.215Z,15.3
2022-12-11T09:23:22.788Z,15.2
2022-12-11T09:24:25.006Z,15.3
2022-12-11T09:25:27.237Z,15.2
2022-12-11T09:26:29.742Z,15.2
2022-12-11T09:27:32.027Z,15.2
2022-12-11T09:28:33.961Z,15.2
2022-12-11T09:29:35.630Z,15.2
2022-12-11T09:30:37.692Z,15.2
2022-12-11T09:31:40.479Z,15.2
2022-12-11T09:32:43.063Z,15.2
2022-12-11T09:33:45.313Z,15.2
2022-12-11T09:34:47.810Z,15.2
2022-12-11T09:35:49.730Z,15.2
2022-12-11T09:36:52.214Z,15.2
2022-12-11T09:37:54.440Z,15.2
2022-12-11T09:38:56.936Z,15.2
2022-12-11T09:41:04.133Z,15.2
2022-12-11T09:42:06.325Z,15.2
2022-12-11T09:43:08.547Z,15.2
2022-12-11T09:44:10.749Z,15.2
2022-12-11T09:45:13.781Z,15.2
2022-12-11T09:46:16.452Z,15.2
2022-12-11T09:47:19.287Z,15.2
2022-12-11T09:48:21.826Z,15.2
2022-12-11T09:49:24.039Z,15.2
2022-12-11T09:50:26.286Z,15.2
2022-12-11T09:51:28.781Z,15.2
2022-12-11T09:52:31.019Z,15.3
2022-12-11T09:53:35.010Z,15.2
2022-12-11T09:54:37.508Z,15.2
2022-12-11T09:55:39.729Z,15.2
2022-12-11T09:56:42.204Z,15.2
2022-12-11T09:57:44.444Z,15.2
2022-12-11T09:58:46.931Z,15.3
2022-12-11T09:59:49.138Z,15.2
2022-12-11T10:00:51.068Z,15.2
2022-12-11T10:01:53.650Z,15.2
2022-12-11T10:02:56.506Z,15.2
2022-12-11T10:03:59.312Z,15.1
2022-12-11T10:05:01.504Z,15.3
2022-12-11T10:06:05.823Z,15.3
2022-12-11T10:07:07.852Z,15.2
2022-12-11T10:08:10.212Z,15.2
2022-12-11T10:09:12.917Z,15.2
2022-12-11T10:10:15.129Z,15.2
2022-12-11T10:11:17.023Z,15.2
2022-12-11T10:12:19.243Z,15.2
2022-12-11T10:13:21.153Z,15.2
2022-12-11T10:14:23.684Z,15.2
2022-12-11T10:15:26.505Z,15.3
2022-12-11T10:16:28.985Z,15.2
2022-12-11T10:17:31.450Z,15.2
2022-12-11T10:18:34.018Z,15.3
2022-12-11T10:19:36.289Z,15.2
2022-12-11T10:20:38.207Z,15.3
2022-12-11T10:21:40.689Z,15.2
2022-12-11T10:22:42.900Z,15.2
2022-12-11T10:23:45.104Z,15.3
2022-12-11T10:25:52.033Z,15.2
2022-12-11T10:26:54.228Z,15.2
2022-12-11T10:27:56.177Z,15.3
2022-12-11T10:28:58.091Z,15.3
2022-12-11T10:30:00.308Z,15.2
2022-12-11T10:31:02.928Z,15.2
2022-12-11T10:32:05.457Z,15.2
2022-12-11T10:33:07.939Z,15.3
2022-12-11T10:34:10.213Z,15.2
2022-12-11T10:35:13.113Z,15.2
2022-12-11T10:36:16.013Z,15.2
2022-12-11T10:37:17.951Z,15.2
2022-12-11T10:38:20.446Z,15.3
2022-12-11T10:39:22.646Z,15.2
2022-12-11T10:40:25.300Z,15.2
2022-12-11T10:41:27.507Z,15.2
2022-12-11T10:42:29.995Z,15.1
2022-12-11T10:43:32.204Z,15.2
2022-12-11T10:44:34.693Z,15.2
2022-12-11T10:45:36.900Z,15.2
2022-12-11T10:46:39.226Z,15.2
2022-12-11T10:47:42.053Z,15.2
2022-12-11T10:48:46.023Z,15.2
2022-12-11T10:49:48.561Z,15.2
2022-12-11T10:50:51.121Z,15.2
2022-12-11T10:51:53.337Z,15.2
2022-12-11T10:52:54.984Z,15.1
2022-12-11T10:53:57.192Z,15.2
2022-12-11T10:55:03.205Z,15.1
2022-12-11T10:56:05.439Z,15.2
2022-12-11T10:57:07.987Z,15.2
2022-12-11T10:58:10.492Z,15.2
2022-12-11T10:59:13.013Z,15.1
2022-12-11T11:00:15.710Z,15.2
2022-12-11T11:01:17.973Z,15.2
2022-12-11T11:02:20.801Z,15.2
2022-12-11T11:03:23.181Z,15.1
2022-12-11T11:04:25.428Z,15.3
2022-12-11T11:05:27.955Z,15.2
2022-12-11T11:06:30.487Z,15.2
2022-12-11T11:07:32.457Z,15.2
2022-12-11T11:08:34.652Z,15.1
2022-12-11T11:09:37.160Z,15.2
2022-12-11T11:10:39.628Z,15.2
2022-12-11T11:11:41.873Z,15.2
2022-12-11T11:12:43.802Z,15.3
2022-12-11T11:13:46.283Z,15.2
2022-12-11T11:14:48.483Z,15.2
2022-12-11T11:15:50.769Z,15.2
2022-12-11T11:16:53.165Z,15.2
2022-12-11T11:17:56.724Z,15.3
2022-12-11T11:18:58.654Z,15.2
2022-12-11T11:20:01.145Z,15.1
2022-12-11T11:21:03.665Z,15.3
2022-12-11T11:22:05.947Z,15.3
2022-12-11T11:23:08.146Z,15.2
2022-12-11T11:24:10.382Z,15.2
2022-12-11T11:25:13.245Z,15.1
2022-12-11T11:26:16.125Z,15.1
2022-12-11T11:27:18.320Z,15.2
2022-12-11T11:28:20.261Z,15.3
2022-12-11T11:29:22.476Z,15.2
2022-12-11T11:30:24.989Z,15.1
2022-12-11T11:31:27.566Z,15.1
2022-12-11T11:32:30.270Z,15.2
2022-12-11T11:33:32.476Z,15.2
2022-12-11T11:34:34.960Z,15.2
2022-12-11T11:36:42.169Z,15.2
2022-12-11T11:37:44.725Z,15.1
2022-12-11T11:38:47.213Z,15.2
2022-12-11T11:39:49.152Z,15.2
2022-12-11T11:40:51.638Z,15.2
2022-12-11T11:41:54.113Z,15.2
2022-12-11T11:42:56.609Z,15.1
2022-12-11T11:43:58.807Z,15.2
2022-12-11T11:45:01.026Z,15.2
2022-12-11T11:46:03.230Z,15.2
2022-12-11T11:47:06.011Z,15.2
2022-12-11T11:49:12.907Z,15.2
2022-12-11T11:50:14.813Z,15.1
2022-12-11T11:51:17.306Z,15.2
2022-12-11T11:52:19.872Z,15.1
2022-12-11T11:53:22.501Z,15.2
2022-12-11T11:54:24.691Z,15.3
2022-12-11T11:55:26.630Z,15.2
2022-12-11T11:56:29.111Z,15.2
2022-12-11T11:57:31.603Z,15.2
2022-12-11T11:58:33.805Z,15.2
2022-12-11T11:59:36.325Z,15.2
2022-12-11T12:00:38.243Z,15.2
2022-12-11T12:01:40.738Z,15.2
2022-12-11T12:02:43.326Z,15.2
2022-12-11T12:03:45.669Z,15.3
2022-12-11T12:04:47.571Z,15.2
2022-12-11T12:05:50.079Z,15.2
2022-12-11T12:06:52.301Z,15.2
2022-12-11T12:07:54.914Z,15.2
2022-12-11T12:08:57.319Z,15
2022-12-11T12:09:59.635Z,15.2
2022-12-11T12:11:01.819Z,15.2
2022-12-11T12:12:04.027Z,15.2
2022-12-11T12:15:16.471Z,15.2
2022-12-11T12:17:23.883Z,15.1
2022-12-11T12:18:26.313Z,15.3
2022-12-11T12:19:28.797Z,15.3
2022-12-11T12:20:31.276Z,15.2
2022-12-11T12:21:33.762Z,15.2
2022-12-11T12:22:36.236Z,15.2
2022-12-11T12:23:38.773Z,15.1
2022-12-11T12:24:41.337Z,15.1
2022-12-11T12:25:43.824Z,15.1
2022-12-11T12:26:46.301Z,15.2
2022-12-11T12:28:53.555Z,15.3
2022-12-11T12:29:56.050Z,15.2
2022-12-11T12:30:58.259Z,15.2
2022-12-11T12:32:00.294Z,15.1
2022-12-11T12:33:02.661Z,15.1
2022-12-11T12:34:04.891Z,15.3
2022-12-11T12:35:07.105Z,15.2
2022-12-11T12:36:10.075Z,15.2
2022-12-11T12:37:12.571Z,15.2
2022-12-11T12:38:14.789Z,15.2
2022-12-11T12:39:17.041Z,15.2
2022-12-11T12:40:19.601Z,15.2
2022-12-11T12:41:21.518Z,15.2
2022-12-11T12:42:23.997Z,15.2
2022-12-11T12:43:26.486Z,15.2
2022-12-11T12:44:28.677Z,15.1
2022-12-11T12:45:30.978Z,15.2
2022-12-11T12:46:33.444Z,15.2
2022-12-11T12:47:35.931Z,15.2
2022-12-11T12:48:37.853Z,15.2
2022-12-11T12:49:40.076Z,15.2
2022-12-11T12:50:42.560Z,15.2
2022-12-11T12:51:44.762Z,15.2
2022-12-11T12:52:46.970Z,15.2
2022-12-11T12:53:49.180Z,15.1
2022-12-11T12:54:51.734Z,15.1
2022-12-11T12:55:58.449Z,15.1
2022-12-11T12:57:00.680Z,15.2
2022-12-11T12:58:02.620Z,15.2
2022-12-11T12:59:05.117Z,15.2
2022-12-11T13:01:12.685Z,15.2
2022-12-11T13:02:15.311Z,15.2
2022-12-11T13:03:17.826Z,15.1
2022-12-11T13:05:25.233Z,15
2022-12-11T13:06:27.715Z,15.2
2022-12-11T13:07:30.370Z,15.2
2022-12-11T13:08:32.793Z,15.2
2022-12-11T13:09:35.553Z,15.2
2022-12-11T13:10:38.068Z,15.2
2022-12-11T13:11:40.297Z,15.3
2022-12-11T13:12:41.990Z,15.2
2022-12-11T13:13:44.201Z,15.1
2022-12-11T13:14:50.647Z,15.2
2022-12-11T13:15:52.842Z,15.2
2022-12-11T13:16:54.784Z,15.2
2022-12-11T13:17:57.412Z,15.1
2022-12-11T13:18:59.066Z,15.1
2022-12-11T13:20:01.544Z,15.1
2022-12-11T13:21:03.743Z,15.2
2022-12-11T13:22:05.951Z,15.1
2022-12-11T13:23:08.441Z,15.1
2022-12-11T13:24:10.942Z,15.2
2022-12-11T13:25:13.656Z,15.2
2022-12-11T13:26:16.211Z,15.2
2022-12-11T13:27:18.477Z,15.2
2022-12-11T13:28:21.007Z,15.1
2022-12-11T13:29:22.944Z,15.1
2022-12-11T13:30:25.167Z,15.1
2022-12-11T13:31:27.457Z,15.2
2022-12-11T13:32:29.846Z,15.2
2022-12-11T13:33:32.335Z,15.1
2022-12-11T13:34:34.831Z,15.2
2022-12-11T13:35:37.051Z,15.1
2022-12-11T13:36:39.545Z,15.2
2022-12-11T13:37:41.766Z,15.2
2022-12-11T13:38:43.972Z,15.2
2022-12-11T13:39:46.456Z,15.1
2022-12-11T13:40:48.404Z,15.1
2022-12-11T13:41:50.945Z,15.2
2022-12-11T13:42:53.527Z,15.2
2022-12-11T13:43:55.936Z,15.1
2022-12-11T13:44:57.957Z,15.2
2022-12-11T13:46:00.047Z,15.1
2022-12-11T13:47:02.575Z,15.2
2022-12-11T13:48:04.530Z,15.1
2022-12-11T13:49:06.763Z,15.2
2022-12-11T13:50:09.073Z,15.1
2022-12-11T13:51:11.539Z,15.1
2022-12-11T13:52:13.497Z,15.1
2022-12-11T13:53:15.974Z,15.1
2022-12-11T13:54:18.411Z,15.1
2022-12-11T13:55:20.894Z,15.2
2022-12-11T13:56:23.386Z,15.1
2022-12-11T13:57:25.953Z,15.2
2022-12-11T13:58:28.501Z,15.1
2022-12-11T13:59:30.847Z,15.2
2022-12-11T14:00:32.312Z,15.2
2022-12-11T14:01:34.754Z,15.1
2022-12-11T14:02:37.317Z,15.2
2022-12-11T14:03:40.110Z,15.1
2022-12-11T14:04:42.335Z,15.2
2022-12-11T14:05:44.819Z,15.2
2022-12-11T14:06:47.323Z,15.2
2022-12-11T14:07:49.762Z,15.2
2022-12-11T14:08:52.535Z,15.1
2022-12-11T14:09:54.731Z,15.2
2022-12-11T14:10:57.212Z,15.1
2022-12-11T14:11:59.516Z,15.2
2022-12-11T14:13:02.050Z,15.2
2022-12-11T14:14:04.589Z,15.1
2022-12-11T14:15:07.104Z,15.1